Time;durP1;ratioP1;P1;durP2;ratioP2;P2;SDS_P1;SDS_P2;PMS_P1;PMS_P2;Temp;Humidity;BMP_temperature;BMP_pressure;BME280_temperature;BME280_humidity;BME280_pressure;Samples;Min_cycle;Max_cycle;Signal;HPM_P1;HPM_P2
2022/09/04 00:02:20;;;;;;;3.15;1.90;;;25.40;55.30;;;;;;4947225;28;87683;-85
2022/09/04 00:05:17;;;;;;;2.85;2.08;;;25.40;55.70;;;;;;4922668;28;94456;-85
2022/09/04 00:07:58;;;;;;;3.35;2.08;;;25.30;55.00;;;;;;4937419;28;93811;-85
2022/09/04 00:10:56;;;;;;;3.00;2.05;;;25.40;55.30;;;;;;4945299;28;92144;-85
2022/09/04 00:13:26;;;;;;;2.65;1.80;;;25.30;55.10;;;;;;4938302;28;87590;-86
2022/09/04 00:16:13;;;;;;;2.45;1.67;;;25.30;55.20;;;;;;4953757;28;90264;-84
2022/09/04 00:19:02;;;;;;;2.08;1.83;;;25.30;55.10;;;;;;4954035;28;92667;-85
2022/09/04 00:21:45;;;;;;;2.80;1.77;;;25.30;55.10;;;;;;4935281;28;89155;-86
2022/09/04 00:24:14;;;;;;;2.70;1.95;;;25.30;55.10;;;;;;4930145;28;87485;-86
2022/09/04 00:26:49;;;;;;;2.42;1.85;;;25.30;55.10;;;;;;4930826;28;87436;-86
2022/09/04 00:29:33;;;;;;;2.15;1.67;;;25.30;55.10;;;;;;4931091;28;88619;-85
2022/09/04 00:32:10;;;;;;;2.10;1.73;;;25.30;55.10;;;;;;4931942;28;92898;-85
2022/09/04 00:35:03;;;;;;;2.63;1.67;;;25.30;55.20;;;;;;4930491;28;88396;-85
2022/09/04 00:37:35;;;;;;;1.92;1.73;;;25.30;55.30;;;;;;4930540;28;87526;-86
2022/09/04 00:40:27;;;;;;;1.95;1.83;;;25.30;55.30;;;;;;4936009;28;91268;-86
2022/09/04 00:43:14;;;;;;;2.10;1.85;;;25.20;55.10;;;;;;4929293;28;88367;-86
2022/09/04 00:46:13;;;;;;;2.20;1.95;;;25.20;55.20;;;;;;4961639;28;87419;-86
2022/09/04 00:49:10;;;;;;;1.60;1.50;;;25.20;55.20;;;;;;4929314;28;87552;-85
2022/09/04 00:52:22;;;;;;;2.33;1.83;;;25.20;55.20;;;;;;4931521;28;87741;-85
2022/09/04 00:55:15;;;;;;;2.15;1.55;;;25.20;55.30;;;;;;4931153;28;88394;-85
2022/09/04 00:58:20;;;;;;;2.00;1.63;;;25.20;55.40;;;;;;4929694;28;87669;-86
2022/09/04 01:00:46;;;;;;;2.58;1.70;;;25.20;55.30;;;;;;4929084;28;87400;-85
2022/09/04 01:03:54;;;;;;;3.03;2.05;;;25.20;55.20;;;;;;4929944;28;88976;-85
2022/09/04 01:06:41;;;;;;;2.67;1.80;;;25.20;55.40;;;;;;4961568;28;92640;-85
2022/09/04 01:09:33;;;;;;;2.20;1.80;;;25.20;55.10;;;;;;4931916;28;87378;-86
2022/09/04 01:12:20;;;;;;;3.17;1.83;;;25.20;55.30;;;;;;4930246;28;87535;-86
2022/09/04 01:15:13;;;;;;;2.00;1.80;;;25.20;55.40;;;;;;4929437;28;87623;-85
2022/09/04 01:18:05;;;;;;;3.00;1.80;;;25.20;55.30;;;;;;4928973;28;88772;-85
2022/09/04 01:20:57;;;;;;;2.88;2.15;;;25.20;55.40;;;;;;4929408;28;87575;-85
2022/09/04 01:24:04;;;;;;;2.03;1.75;;;25.20;55.40;;;;;;4931907;28;86838;-85
2022/09/04 01:26:35;;;;;;;2.05;1.85;;;25.20;55.50;;;;;;4936540;28;88603;-85
2022/09/04 01:29:13;;;;;;;1.90;1.70;;;25.20;55.50;;;;;;4937420;28;87824;-86
2022/09/04 01:32:08;;;;;;;2.95;2.20;;;25.20;55.40;;;;;;4952444;28;88518;-86
2022/09/04 01:34:52;;;;;;;2.72;1.88;;;25.10;55.40;;;;;;4908210;28;87188;-85
2022/09/04 01:37:41;;;;;;;2.72;1.90;;;25.10;55.30;;;;;;4908023;28;88362;-85
2022/09/04 01:40:22;;;;;;;;;;;25.10;55.40;;;;;;4908182;28;88383;-85
2022/09/04 01:43:01;;;;;;;2.33;2.15;;;25.10;55.50;;;;;;4908195;28;87341;-85
2022/09/04 01:46:10;;;;;;;1.85;1.65;;;25.10;55.30;;;;;;4906114;28;87110;-86
2022/09/04 01:48:49;;;;;;;2.63;2.08;;;25.10;55.90;;;;;;4907709;28;88542;-85
2022/09/04 01:51:43;;;;;;;1.95;1.75;;;25.10;55.40;;;;;;4908580;28;89143;-86
2022/09/04 01:54:22;;;;;;;2.47;1.90;;;25.10;55.30;;;;;;4822303;29;87857;-86
2022/09/04 01:57:07;;;;;;;1.90;1.70;;;25.10;55.30;;;;;;4823568;29;87441;-85
2022/09/04 02:00:02;;;;;;;2.00;1.60;;;25.10;55.20;;;;;;4805661;29;93449;-85
2022/09/04 02:02:38;;;;;;;1.73;1.52;;;25.10;55.20;;;;;;4820759;29;89151;-85
2022/09/04 02:05:49;;;;;;;2.05;1.70;;;25.10;55.30;;;;;;4814522;29;87770;-85
2022/09/04 02:08:34;;;;;;;2.00;1.73;;;25.10;55.20;;;;;;4804256;29;91422;-85
2022/09/04 02:11:21;;;;;;;1.90;1.60;;;25.10;55.40;;;;;;4810279;29;90667;-85
2022/09/04 02:14:10;;;;;;;2.42;1.73;;;25.10;55.30;;;;;;4821828;29;92319;-85
2022/09/04 02:16:55;;;;;;;2.17;1.75;;;25.00;55.20;;;;;;4822029;29;87138;-85
2022/09/04 02:19:48;;;;;;;1.60;1.50;;;25.10;55.40;;;;;;4821970;29;87368;-86
2022/09/04 02:22:43;;;;;;;2.05;1.80;;;25.10;55.20;;;;;;4822179;29;88640;-85
2022/09/04 02:25:37;;;;;;;2.03;1.75;;;25.10;55.40;;;;;;4820840;29;87340;-85
2022/09/04 02:28:40;;;;;;;1.88;1.50;;;25.00;55.30;;;;;;4821459;29;88459;-86
2022/09/04 02:31:17;;;;;;;2.75;2.00;;;25.10;55.30;;;;;;4865673;28;87488;-85
2022/09/04 02:34:32;;;;;;;2.28;1.80;;;25.00;55.30;;;;;;4907708;28;88844;-85
2022/09/04 02:37:04;;;;;;;1.50;1.40;;;25.00;55.20;;;;;;4891460;28;88507;-85
2022/09/04 02:40:10;;;;;;;2.08;1.80;;;25.00;55.10;;;;;;4897021;28;87221;-84
2022/09/04 02:42:42;;;;;;;2.28;1.60;;;25.00;55.10;;;;;;4821733;29;87312;-86
2022/09/04 02:45:32;;;;;;;1.92;1.50;;;25.00;55.00;;;;;;4803952;29;88300;-85
2022/09/04 02:48:04;;;;;;;2.55;1.73;;;25.00;55.20;;;;;;4803937;29;87942;-85
2022/09/04 02:50:46;;;;;;;1.95;1.77;;;25.00;55.20;;;;;;4803928;29;87669;-85
2022/09/04 02:53:40;;;;;;;1.95;1.60;;;25.00;55.00;;;;;;4804027;29;87306;-85
2022/09/04 02:56:38;;;;;;;1.90;1.75;;;25.00;55.20;;;;;;4802636;29;93725;-85
2022/09/04 02:59:35;;;;;;;1.75;1.60;;;25.00;55.20;;;;;;4803995;29;93549;-85
2022/09/04 03:02:06;;;;;;;2.60;1.70;;;25.00;55.20;;;;;;4804125;29;87287;-86
2022/09/04 03:04:51;;;;;;;1.88;1.77;;;25.00;55.00;;;;;;4803844;29;87603;-85
2022/09/04 03:07:34;;;;;;;2.20;1.60;;;25.00;55.80;;;;;;4822973;29;89120;-85
2022/09/04 03:10:11;;;;;;;2.30;1.80;;;25.00;55.10;;;;;;4852870;28;88432;-85
2022/09/04 03:12:55;;;;;;;2.35;1.63;;;25.00;55.10;;;;;;4853955;28;87159;-85
2022/09/04 03:15:45;;;;;;;1.60;1.50;;;24.90;55.00;;;;;;4854050;28;86630;-85
2022/09/04 03:18:22;;;;;;;1.70;1.60;;;25.00;55.20;;;;;;4852268;29;88147;-85
2022/09/04 03:21:02;;;;;;;1.55;1.33;;;25.00;55.30;;;;;;4911138;28;87600;-84
2022/09/04 03:23:43;;;;;;;2.30;1.77;;;24.90;55.20;;;;;;4912005;28;88261;-85
2022/09/04 03:26:26;;;;;;;1.70;1.60;;;24.90;55.10;;;;;;4913366;28;87130;-85
2022/09/04 03:28:59;;;;;;;1.80;1.63;;;24.90;55.10;;;;;;4913402;28;92720;-85
2022/09/04 03:31:47;;;;;;;2.35;1.77;;;24.90;55.10;;;;;;4911500;28;88165;-85
2022/09/04 03:34:34;;;;;;;1.63;1.50;;;24.90;55.70;;;;;;4911727;28;87490;-85
2022/09/04 03:37:37;;;;;;;2.38;1.60;;;24.90;55.00;;;;;;4925562;28;88224;-85
2022/09/04 03:40:45;;;;;;;1.70;1.50;;;24.90;55.10;;;;;;4938410;28;87650;-85
2022/09/04 03:43:53;;;;;;;2.00;1.67;;;24.90;55.20;;;;;;4939267;28;87377;-85
2022/09/04 03:46:48;;;;;;;2.00;1.80;;;24.90;55.00;;;;;;4938758;28;87618;-85
2022/09/04 03:49:19;;;;;;;2.83;1.50;;;24.90;55.20;;;;;;4937046;28;87621;-86
2022/09/04 03:52:11;;;;;;;1.98;1.40;;;24.90;55.10;;;;;;4937303;28;89519;-85
2022/09/04 03:54:49;;;;;;;1.70;1.52;;;24.90;55.10;;;;;;4937729;28;89318;-85
2022/09/04 03:57:34;;;;;;;1.60;1.50;;;24.90;55.20;;;;;;4946720;28;89216;-86
2022/09/04 04:00:11;;;;;;;1.85;1.60;;;24.90;55.10;;;;;;4938951;28;94195;-86
2022/09/04 04:03:08;;;;;;;1.67;1.40;;;24.90;55.20;;;;;;4938393;28;87789;-85
2022/09/04 04:06:04;;;;;;;1.52;1.42;;;24.90;55.20;;;;;;4935845;28;88516;-85
2022/09/04 04:08:55;;;;;;;1.30;1.20;;;24.90;55.00;;;;;;4899024;28;88562;-85
2022/09/04 04:11:45;;;;;;;2.08;1.55;;;24.90;55.20;;;;;;4899491;28;86542;-85
2022/09/04 04:14:36;;;;;;;1.73;1.50;;;24.90;55.10;;;;;;4898151;28;88420;-85
2022/09/04 04:17:20;;;;;;;1.67;1.45;;;24.90;55.20;;;;;;4889825;28;96050;-86
2022/09/04 04:19:51;;;;;;;2.15;1.95;;;24.80;55.20;;;;;;4898293;28;88012;-85
2022/09/04 04:22:54;;;;;;;1.33;1.23;;;24.80;55.20;;;;;;4899035;28;87893;-85
2022/09/04 04:25:41;;;;;;;1.95;1.50;;;24.80;55.20;;;;;;4899369;28;88694;-85
2022/09/04 04:28:29;;;;;;;1.77;1.52;;;24.80;55.30;;;;;;4899790;28;87458;-85
2022/09/04 04:31:21;;;;;;;2.05;1.60;;;24.80;55.30;;;;;;4899331;28;87411;-85
2022/09/04 04:33:51;;;;;;;1.55;1.45;;;24.80;55.30;;;;;;4899093;28;87468;-85
2022/09/04 04:36:39;;;;;;;1.85;1.48;;;24.90;55.40;;;;;;4898990;28;88555;-85
2022/09/04 04:39:23;;;;;;;1.50;1.38;;;24.80;55.30;;;;;;4898512;28;88042;-85
2022/09/04 04:42:13;;;;;;;1.63;1.30;;;24.90;55.40;;;;;;4899112;28;87753;-85
2022/09/04 04:48:06;;;;;;;1.75;1.38;;;24.80;55.30;;;;;;4932161;28;88587;-85
2022/09/04 04:50:58;;;;;;;1.50;1.40;;;24.80;55.40;;;;;;4960482;28;92513;-85
2022/09/04 04:53:30;;;;;;;1.40;1.30;;;24.80;55.30;;;;;;4961752;28;87936;-84
2022/09/04 04:56:05;;;;;;;1.48;1.38;;;24.80;55.30;;;;;;4931382;28;87385;-85
2022/09/04 04:58:56;;;;;;;1.52;1.25;;;24.80;55.30;;;;;;4929389;28;87736;-84
2022/09/04 05:01:21;;;;;;;1.30;1.20;;;24.80;55.20;;;;;;4929707;28;89106;-86
2022/09/04 05:04:05;;;;;;;1.38;1.25;;;24.80;55.30;;;;;;4930386;28;87433;-85
2022/09/04 05:06:45;;;;;;;2.25;1.88;;;24.80;55.20;;;;;;4931211;28;87391;-85
2022/09/04 05:09:32;;;;;;;2.42;1.50;;;24.80;55.30;;;;;;4962075;28;91039;-85
2022/09/04 05:12:24;;;;;;;1.40;1.30;;;24.80;55.30;;;;;;4930408;28;88293;-85
2022/09/04 05:14:59;;;;;;;2.35;1.70;;;24.80;55.30;;;;;;4929469;28;88737;-85
2022/09/04 05:17:45;;;;;;;1.70;1.50;;;24.80;55.40;;;;;;4928434;28;88349;-85
2022/09/04 05:20:22;;;;;;;1.98;1.50;;;24.80;55.30;;;;;;4931649;28;88449;-85
2022/09/04 05:23:15;;;;;;;1.85;1.48;;;24.80;55.40;;;;;;4929950;28;92733;-85
2022/09/04 05:25:58;;;;;;;1.50;1.38;;;24.80;55.30;;;;;;4962038;28;87629;-84
2022/09/04 05:28:43;;;;;;;1.67;1.52;;;24.80;55.30;;;;;;4929969;28;87382;-85
2022/09/04 05:31:28;;;;;;;1.65;1.55;;;24.80;55.40;;;;;;4929724;28;88710;-86
2022/09/04 05:34:19;;;;;;;1.77;1.60;;;24.80;55.30;;;;;;4928856;28;88263;-85
2022/09/04 05:37:11;;;;;;;1.40;1.30;;;24.80;55.20;;;;;;4936410;28;87280;-85
2022/09/04 05:39:59;;;;;;;1.30;1.20;;;24.80;55.10;;;;;;4952558;28;90587;-85
2022/09/04 05:42:48;;;;;;;1.73;1.63;;;24.90;55.00;;;;;;4935849;28;89161;-85
2022/09/04 05:45:48;;;;;;;1.38;1.27;;;24.90;55.10;;;;;;4936695;28;89019;-85
2022/09/04 05:48:21;;;;;;;;;;;24.90;54.90;;;;;;4928681;28;87585;-85
2022/09/04 05:51:11;;;;;;;1.60;1.50;;;24.90;55.00;;;;;;4937648;28;87506;-85
2022/09/04 05:54:16;;;;;;;1.73;1.40;;;24.90;55.00;;;;;;4936967;28;88316;-85
2022/09/04 05:56:50;;;;;;;1.27;1.17;;;24.90;55.00;;;;;;4934999;28;88499;-85
2022/09/04 05:59:33;;;;;;;1.58;1.42;;;24.90;55.20;;;;;;4936702;28;87095;-85
2022/09/04 06:02:25;;;;;;;1.40;1.23;;;24.90;55.00;;;;;;4936936;28;86906;-85
2022/09/04 06:04:59;;;;;;;1.98;1.40;;;24.90;55.00;;;;;;4936046;28;93056;-86
2022/09/04 06:07:52;;;;;;;1.33;1.20;;;24.90;55.00;;;;;;4935836;28;87334;-84
2022/09/04 06:10:57;;;;;;;1.50;1.38;;;24.90;55.10;;;;;;4936161;28;88104;-85
2022/09/04 06:13:46;;;;;;;1.40;1.30;;;24.90;55.00;;;;;;4953124;28;88931;-85
2022/09/04 06:16:32;;;;;;;;;;;25.00;55.00;;;;;;4929504;28;88662;-84
2022/09/04 06:19:22;;;;;;;1.20;1.10;;;25.00;55.00;;;;;;4966534;28;87369;-86
2022/09/04 06:21:58;;;;;;;2.47;1.40;;;25.00;55.00;;;;;;4964850;28;87078;-85
2022/09/04 06:24:44;;;;;;;3.38;1.23;;;25.00;53.60;;;;;;4946914;28;89209;-84
2022/09/04 06:27:33;;;;;;;2.72;1.25;;;25.10;53.70;;;;;;4963336;28;88315;-87
2022/09/04 06:30:10;;;;;;;2.72;1.40;;;25.10;53.30;;;;;;4965308;28;87901;-88
2022/09/04 06:33:02;;;;;;;3.58;1.42;;;25.20;53.30;;;;;;4966076;28;87119;-88
2022/09/04 06:35:35;;;;;;;2.85;1.60;;;25.20;53.40;;;;;;4964222;28;87147;-86
2022/09/04 06:38:16;;;;;;;5.15;1.80;;;25.20;53.60;;;;;;4947063;28;92337;-84
2022/09/04 06:41:01;;;;;;;3.50;2.05;;;25.30;54.10;;;;;;4963342;28;93589;-86
2022/09/04 06:43:46;;;;;;;7.00;1.70;;;25.20;54.20;;;;;;4960000;28;87644;-83
2022/09/04 06:46:21;;;;;;;3.17;1.85;;;25.30;54.30;;;;;;4961235;28;87562;-81
2022/09/04 06:49:12;;;;;;;3.83;1.85;;;25.20;54.70;;;;;;4958394;28;88369;-82
2022/09/04 06:51:58;;;;;;;3.92;2.00;;;25.20;55.90;;;;;;4959640;28;87579;-82
2022/09/04 06:54:52;;;;;;;4.03;1.90;;;25.20;56.20;;;;;;4959109;28;87002;-82
2022/09/04 06:57:45;;;;;;;3.20;1.98;;;25.10;56.70;;;;;;4924624;28;87360;-82
2022/09/04 07:00:14;;;;;;;4.15;1.90;;;25.20;56.70;;;;;;4920790;28;87375;-83
2022/09/04 07:02:39;;;;;;;;;;;25.10;56.70;;;;;;4923558;28;87823;-84
2022/09/04 07:05:20;;;;;;;2.15;1.90;;;25.20;56.80;;;;;;4927178;28;88506;-83
2022/09/04 07:08:26;;;;;;;4.13;1.75;;;25.20;56.50;;;;;;4923735;28;91293;-82
2022/09/04 07:11:17;;;;;;;2.55;1.67;;;25.20;56.60;;;;;;4931834;28;91859;-82
2022/09/04 07:14:15;;;;;;;3.17;1.92;;;25.20;56.60;;;;;;4930434;28;92927;-82
2022/09/04 07:17:05;;;;;;;4.07;1.85;;;25.10;56.40;;;;;;4949971;28;87690;-83
2022/09/04 07:19:52;;;;;;;2.92;1.95;;;25.20;56.50;;;;;;4965308;28;90357;-81
2022/09/04 07:22:47;;;;;;;2.92;1.58;;;25.20;56.60;;;;;;4948974;28;87789;-82
2022/09/04 07:25:26;;;;;;;2.70;1.70;;;25.20;56.60;;;;;;4945040;28;88307;-84
2022/09/04 07:28:52;;;;;;;5.28;1.70;;;25.20;56.40;;;;;;4941651;28;87046;-83
2022/09/04 07:32:00;;;;;;;4.05;1.75;;;25.20;56.30;;;;;;4900508;28;88803;-83
2022/09/04 07:34:44;;;;;;;1.98;1.60;;;25.30;56.40;;;;;;4813736;29;90111;-84
2022/09/04 07:37:22;;;;;;;6.85;1.67;;;25.20;56.80;;;;;;4789845;29;97453;-83
2022/09/04 07:39:59;;;;;;;2.65;1.80;;;25.30;56.70;;;;;;4813298;29;87284;-84
2022/09/04 07:42:40;;;;;;;43.90;6.93;;;25.20;56.70;;;;;;4815588;29;87946;-83
2022/09/04 07:45:31;;;;;;;72.78;12.90;;;25.20;56.70;;;;;;4815284;29;89958;-82
2022/09/04 07:48:27;;;;;;;63.53;15.10;;;25.20;56.60;;;;;;4816520;29;88316;-82
2022/09/04 07:51:03;;;;;;;60.67;11.23;;;25.20;56.80;;;;;;4829009;29;87527;-83
2022/09/04 07:54:06;;;;;;;37.35;8.77;;;25.30;56.80;;;;;;4815102;29;87307;-82
2022/09/04 07:57:02;;;;;;;27.73;6.95;;;25.30;56.70;;;;;;4817323;29;89019;-83
2022/09/04 07:59:28;;;;;;;14.93;4.97;;;25.30;56.50;;;;;;4816729;29;88014;-82
2022/09/04 08:02:31;;;;;;;13.90;4.15;;;25.30;56.80;;;;;;4820075;29;88739;-83
2022/09/04 08:05:30;;;;;;;15.50;3.75;;;25.30;56.80;;;;;;4861372;28;91696;-81
2022/09/04 08:08:29;;;;;;;9.48;3.60;;;25.30;56.70;;;;;;4926592;28;92082;-82
2022/09/04 08:11:17;;;;;;;9.35;3.85;;;25.30;56.70;;;;;;4927522;28;91148;-82
2022/09/04 08:14:08;;;;;;;12.35;3.88;;;25.30;56.70;;;;;;4929642;28;87517;-83
2022/09/04 08:16:42;;;;;;;10.77;3.40;;;25.30;56.60;;;;;;4930958;28;87856;-86
2022/09/04 08:19:47;;;;;;;10.57;2.90;;;25.30;56.60;;;;;;4925834;28;88633;-83
2022/09/04 08:22:28;;;;;;;6.88;3.33;;;25.30;56.10;;;;;;4927614;28;87820;-83
2022/09/04 08:24:54;;;;;;;11.30;3.13;;;25.30;56.30;;;;;;4924150;28;86927;-84
2022/09/04 08:27:28;;;;;;;10.98;3.30;;;25.30;56.50;;;;;;4928076;28;88104;-81
2022/09/04 08:30:07;;;;;;;8.25;3.28;;;25.40;56.50;;;;;;4925788;28;89472;-82
2022/09/04 08:32:41;;;;;;;9.90;2.70;;;25.40;56.30;;;;;;4924996;28;88463;-82
2022/09/04 08:35:20;;;;;;;12.85;3.65;;;25.40;56.30;;;;;;4928119;28;87269;-82
2022/09/04 08:37:58;;;;;;;19.40;3.58;;;25.40;56.60;;;;;;4925907;28;90833;-82
2022/09/04 08:41:00;;;;;;;11.23;2.88;;;25.40;56.70;;;;;;4926250;28;87943;-84
2022/09/04 08:43:39;;;;;;;8.57;2.88;;;25.50;56.20;;;;;;4927020;28;87508;-85
2022/09/04 08:46:17;;;;;;;9.38;2.58;;;25.50;56.00;;;;;;4928862;28;87038;-84
2022/09/04 08:49:01;;;;;;;8.27;3.30;;;25.60;55.90;;;;;;4930505;28;87175;-85
2022/09/04 08:51:35;;;;;;;5.47;2.28;;;25.60;55.40;;;;;;4930372;28;90092;-85
2022/09/04 08:54:19;;;;;;;7.15;2.42;;;25.60;55.10;;;;;;4927910;28;87944;-84
2022/09/04 08:57:05;;;;;;;9.10;2.70;;;25.60;57.30;;;;;;4921244;28;90799;-83
2022/09/04 08:59:54;;;;;;;7.10;2.72;;;25.60;61.60;;;;;;4921659;28;89719;-80
2022/09/04 09:02:44;;;;;;;7.80;2.20;;;25.50;59.90;;;;;;4917844;28;88486;-82
2022/09/04 09:05:44;;;;;;;6.80;2.65;;;25.50;57.40;;;;;;4911552;28;92095;-81
2022/09/04 09:08:33;;;;;;;5.43;2.58;;;25.50;56.90;;;;;;4919298;28;89853;-80
2022/09/04 09:11:07;;;;;;;10.02;3.20;;;25.60;56.90;;;;;;4917204;28;92117;-79
2022/09/04 09:14:05;;;;;;;5.65;3.17;;;25.60;56.20;;;;;;4919566;28;88275;-81
2022/09/04 09:16:42;;;;;;;10.93;3.55;;;25.50;56.30;;;;;;4953604;28;95932;-81
2022/09/04 09:19:22;;;;;;;7.88;3.45;;;25.50;56.80;;;;;;4955640;28;88101;-82
2022/09/04 09:22:05;;;;;;;7.72;2.90;;;25.50;57.00;;;;;;4923591;28;90376;-81
2022/09/04 09:24:58;;;;;;;8.70;2.75;;;25.50;56.60;;;;;;4952963;28;89685;-82
2022/09/04 09:27:41;;;;;;;5.35;2.78;;;25.60;56.90;;;;;;4955417;28;88338;-81
2022/09/04 09:30:14;;;;;;;11.65;3.10;;;25.70;56.10;;;;;;4940296;28;87205;-82
2022/09/04 09:32:39;;;;;;;6.00;3.03;;;25.70;56.20;;;;;;4956040;28;88403;-83
2022/09/04 09:35:28;;;;;;;8.50;3.38;;;25.60;56.20;;;;;;4960307;28;87828;-82
2022/09/04 09:38:13;;;;;;;5.65;3.25;;;25.60;56.20;;;;;;4954910;28;88793;-81
2022/09/04 09:40:54;;;;;;;8.95;3.05;;;25.50;56.30;;;;;;4955480;28;87787;-84
2022/09/04 09:43:20;;;;;;;4.88;2.50;;;25.50;56.20;;;;;;4930728;28;90541;-82
2022/09/04 09:46:01;;;;;;;4.57;2.75;;;25.50;56.20;;;;;;4957173;28;88708;-81
2022/09/04 09:48:35;;;;;;;10.02;4.07;;;25.50;55.90;;;;;;4954599;28;88484;-82
2022/09/04 09:51:21;;;;;;;15.43;5.25;;;25.60;55.90;;;;;;4954345;28;87988;-81
2022/09/04 09:54:08;;;;;;;21.88;6.70;;;25.50;55.80;;;;;;4921029;28;89575;-83
2022/09/04 09:57:00;;;;;;;21.30;6.28;;;25.50;55.70;;;;;;4922556;28;88165;-82
2022/09/04 10:00:05;;;;;;;17.58;6.22;;;25.60;55.60;;;;;;4948390;28;87624;-83
2022/09/04 10:02:49;;;;;;;22.25;6.88;;;25.60;55.50;;;;;;4928621;28;88012;-82
2022/09/04 10:05:33;;;;;;;22.88;6.78;;;25.60;55.60;;;;;;4929230;28;86997;-83
2022/09/04 10:08:26;;;;;;;20.98;7.40;;;25.60;55.80;;;;;;4927791;28;89278;-83
2022/09/04 10:11:00;;;;;;;18.75;6.75;;;25.60;56.30;;;;;;4929387;28;89388;-83
2022/09/04 10:14:16;;;;;;;23.88;6.30;;;25.50;56.70;;;;;;4959365;28;87257;-83
2022/09/04 10:16:47;;;;;;;21.48;6.80;;;25.50;57.00;;;;;;4956210;28;88429;-82
2022/09/04 10:19:35;;;;;;;16.85;6.00;;;25.60;57.60;;;;;;4963587;28;89548;-83
2022/09/04 10:22:30;;;;;;;20.63;6.65;;;25.60;57.70;;;;;;4966245;28;90127;-84
2022/09/04 10:25:23;;;;;;;16.17;6.50;;;25.60;57.80;;;;;;4948543;28;87484;-85
2022/09/04 10:28:18;;;;;;;19.80;7.10;;;25.60;57.80;;;;;;4965246;28;87970;-84
2022/09/04 10:31:17;;;;;;;23.05;7.88;;;25.60;58.10;;;;;;4949088;28;89972;-82
2022/09/04 10:33:57;;;;;;;20.90;6.60;;;25.60;57.80;;;;;;4963858;28;88256;-82
2022/09/04 10:36:49;;;;;;;17.60;6.57;;;25.60;58.00;;;;;;4964533;28;87973;-80
2022/09/04 10:42:28;;;;;;;21.48;7.32;;;25.60;57.90;;;;;;4962893;28;91705;-81
2022/09/04 10:45:13;;;;;;;17.67;6.90;;;25.60;58.00;;;;;;4962046;28;92146;-82
2022/09/04 10:48:16;;;;;;;16.73;6.00;;;25.60;58.00;;;;;;4962658;28;88197;-81
2022/09/04 10:51:12;;;;;;;19.88;6.10;;;25.60;58.00;;;;;;4961475;28;88093;-80
2022/09/04 10:53:56;;;;;;;14.90;6.15;;;25.70;57.90;;;;;;4938510;28;88418;-81
2022/09/04 10:56:27;;;;;;;19.83;6.97;;;25.60;58.00;;;;;;4925593;28;87472;-81
2022/09/04 10:59:20;;;;;;;14.65;6.68;;;25.60;57.80;;;;;;4957970;28;87847;-82
2022/09/04 11:02:00;;;;;;;18.27;7.10;;;25.60;57.90;;;;;;4924732;28;87054;-81
2022/09/04 11:04:51;;;;;;;17.38;6.25;;;25.60;58.10;;;;;;4922503;28;87771;-82
2022/09/04 11:07:41;;;;;;;21.83;6.38;;;25.60;58.10;;;;;;4924881;28;88463;-79
2022/09/04 11:10:36;;;;;;;19.48;6.65;;;25.60;58.30;;;;;;4923991;28;87221;-79
2022/09/04 11:13:36;;;;;;;17.88;6.40;;;25.60;58.40;;;;;;4926097;28;87150;-81
2022/09/04 11:16:24;;;;;;;14.77;6.05;;;25.60;58.70;;;;;;4923292;28;89513;-80
2022/09/04 11:19:27;;;;;;;15.00;6.22;;;25.60;58.80;;;;;;4926695;28;88798;-82
2022/09/04 11:22:33;;;;;;;16.70;6.22;;;25.60;58.50;;;;;;4925466;28;87371;-82
2022/09/04 11:25:43;;;;;;;14.50;5.80;;;25.60;58.30;;;;;;4909986;28;91207;-80
2022/09/04 11:28:45;;;;;;;15.93;5.63;;;25.60;58.30;;;;;;4942595;28;88322;-80
2022/09/04 11:31:22;;;;;;;16.63;6.10;;;25.60;58.30;;;;;;4941617;28;87753;-80
2022/09/04 11:34:10;;;;;;;15.55;6.10;;;25.70;58.70;;;;;;4944013;28;87784;-82
2022/09/04 11:36:57;;;;;;;11.75;5.68;;;25.70;58.40;;;;;;4946835;28;86727;-83
2022/09/04 11:40:03;;;;;;;12.98;6.05;;;25.80;58.20;;;;;;4944131;28;88442;-82
2022/09/04 11:42:40;;;;;;;13.57;6.10;;;25.70;58.30;;;;;;4943457;28;87518;-82
2022/09/04 11:45:37;;;;;;;16.00;5.57;;;25.70;58.30;;;;;;4928315;28;88341;-80
2022/09/04 11:48:11;;;;;;;15.50;5.93;;;25.70;58.40;;;;;;4944585;28;91256;-82
2022/09/04 11:51:03;;;;;;;15.95;6.18;;;25.70;58.20;;;;;;4944991;28;88431;-81
2022/09/04 11:53:38;;;;;;;13.93;6.03;;;25.70;58.70;;;;;;4944642;28;88044;-82
2022/09/04 11:56:19;;;;;;;14.45;5.40;;;25.70;58.00;;;;;;4944251;28;87595;-83
2022/09/04 11:59:03;;;;;;;13.02;5.57;;;25.70;57.90;;;;;;4937898;28;87502;-82
2022/09/04 12:02:14;;;;;;;12.98;6.47;;;25.60;57.70;;;;;;4924604;28;88438;-82
2022/09/04 12:05:01;;;;;;;18.85;6.32;;;25.70;57.70;;;;;;4923163;28;88557;-81
2022/09/04 12:07:56;;;;;;;17.17;5.65;;;25.70;57.60;;;;;;4925776;28;87039;-81
2022/09/04 12:10:51;;;;;;;12.98;5.78;;;25.60;57.60;;;;;;4925753;28;87685;-81
2022/09/04 12:13:16;;;;;;;11.43;5.22;;;25.70;57.60;;;;;;4891240;28;89391;-82
2022/09/04 12:16:00;;;;;;;15.65;6.22;;;25.70;57.50;;;;;;4905249;28;88709;-81
2022/09/04 12:19:04;;;;;;;13.70;5.82;;;25.70;57.50;;;;;;4897393;28;87231;-81
2022/09/04 12:21:41;;;;;;;12.68;5.43;;;25.70;57.30;;;;;;4905150;28;87351;-82
2022/09/04 12:24:18;;;;;;;14.23;6.32;;;25.70;57.30;;;;;;4905924;28;87164;-81
2022/09/04 12:27:03;;;;;;;15.48;5.70;;;25.70;57.20;;;;;;4905311;28;87752;-82
2022/09/04 12:29:37;;;;;;;12.77;5.22;;;25.70;57.10;;;;;;4903755;28;87258;-80
2022/09/04 12:32:21;;;;;;;11.80;5.20;;;25.70;57.10;;;;;;4904287;28;87404;-81
2022/09/04 12:34:47;;;;;;;14.20;5.90;;;25.70;57.10;;;;;;4903355;28;90108;-81
2022/09/04 12:37:59;;;;;;;14.13;5.85;;;25.70;57.00;;;;;;4904278;28;88470;-81
2022/09/04 12:40:30;;;;;;;11.73;4.82;;;25.70;56.90;;;;;;4904675;28;88423;-84
2022/09/04 12:43:33;;;;;;;10.43;5.00;;;25.70;56.90;;;;;;4884718;28;90053;-85
2022/09/04 12:46:21;;;;;;;8.98;5.10;;;25.70;57.00;;;;;;4887171;28;88162;-84
2022/09/04 12:48:56;;;;;;;11.70;5.50;;;25.70;56.90;;;;;;4885913;28;88527;-81
2022/09/04 12:51:24;;;;;;;11.93;6.13;;;25.70;56.90;;;;;;4924113;28;87420;-82
2022/09/04 12:53:52;;;;;;;14.18;5.30;;;25.70;56.80;;;;;;4957183;28;95196;-82
2022/09/04 12:56:42;;;;;;;12.18;5.70;;;25.70;56.60;;;;;;4928218;28;87266;-81
2022/09/04 12:59:34;;;;;;;10.25;5.55;;;25.70;56.70;;;;;;4925757;28;87495;-82
2022/09/04 13:02:16;;;;;;;11.10;4.90;;;25.70;56.60;;;;;;4926264;28;87287;-83
2022/09/04 13:04:57;;;;;;;8.25;4.40;;;25.70;56.50;;;;;;4928056;28;87329;-82
2022/09/04 13:08:07;;;;;;;9.25;4.68;;;25.80;56.60;;;;;;4928753;28;88539;-83
2022/09/04 13:10:54;;;;;;;8.90;4.72;;;25.80;56.50;;;;;;4937277;28;89005;-83
2022/09/04 13:13:32;;;;;;;12.10;4.93;;;25.80;56.50;;;;;;4937118;28;87689;-83
2022/09/04 13:16:30;;;;;;;8.27;4.77;;;25.80;56.60;;;;;;4921239;28;89113;-85
2022/09/04 13:19:12;;;;;;;14.07;5.35;;;25.80;56.80;;;;;;4937049;28;87573;-86
2022/09/04 13:21:48;;;;;;;14.10;5.28;;;25.80;57.20;;;;;;4937396;28;88374;-86
2022/09/04 13:24:25;;;;;;;13.40;5.28;;;25.80;57.30;;;;;;4937759;28;87145;-87
2022/09/04 13:27:25;;;;;;;13.63;4.85;;;25.90;56.40;;;;;;4956512;28;91714;-85
2022/09/04 13:30:04;;;;;;;12.45;5.10;;;25.80;54.10;;;;;;4941447;28;93892;-86
2022/09/04 13:32:32;;;;;;;16.23;5.60;;;25.80;53.20;;;;;;4973119;28;91833;-86
2022/09/04 13:35:07;;;;;;;10.43;5.30;;;25.70;52.10;;;;;;4956299;28;88209;-85
2022/09/04 13:37:44;;;;;;;10.50;4.57;;;25.70;51.20;;;;;;4957213;28;87567;-86
2022/09/04 13:40:41;;;;;;;15.52;5.22;;;25.60;50.70;;;;;;4935988;28;88129;-86
2022/09/04 13:43:41;;;;;;;16.98;5.47;;;25.60;50.80;;;;;;4912235;28;91808;-86
2022/09/04 13:46:19;;;;;;;14.13;5.75;;;25.50;55.20;;;;;;4926023;28;87919;-87
2022/09/04 13:48:51;;;;;;;17.93;5.37;;;25.50;56.40;;;;;;4927311;28;87443;-88
2022/09/04 13:51:22;;;;;;;17.35;5.72;;;25.60;57.10;;;;;;4927232;28;88711;-89
2022/09/04 13:54:07;;;;;;;20.35;5.18;;;25.60;56.70;;;;;;4928930;28;92519;-87
2022/09/04 13:56:37;;;;;;;26.77;5.45;;;25.70;59.20;;;;;;4933711;28;87715;-88
2022/09/04 13:59:08;;;;;;;24.45;5.80;;;25.80;60.50;;;;;;4926847;28;88223;-87
2022/09/04 14:01:44;;;;;;;21.30;5.78;;;25.80;61.00;;;;;;4925236;28;89245;-86
2022/09/04 14:04:15;;;;;;;25.13;5.65;;;25.90;61.80;;;;;;4912174;28;91771;-86
2022/09/04 14:06:43;;;;;;;19.67;5.57;;;26.00;62.20;;;;;;4926218;28;87463;-86
2022/09/04 14:09:09;;;;;;;27.70;6.15;;;26.10;62.60;;;;;;4926714;28;87394;-91
2022/09/04 14:12:12;;;;;;;27.70;5.95;;;26.10;60.20;;;;;;4924863;28;90518;-92
2022/09/04 14:14:43;;;;;;;23.73;5.55;;;26.00;58.20;;;;;;4927876;28;88035;-93
2022/09/04 14:17:10;;;;;;;14.90;5.78;;;25.90;58.80;;;;;;4926226;28;87617;-91
2022/09/04 14:19:56;;;;;;;20.75;5.60;;;25.90;61.60;;;;;;4925984;28;86499;-91
2022/09/04 14:22:40;;;;;;;18.88;4.70;;;25.90;62.90;;;;;;4927205;28;88608;-90
2022/09/04 14:25:15;;;;;;;21.20;6.30;;;26.00;63.30;;;;;;4929054;28;87610;-85
2022/09/04 14:27:58;;;;;;;18.45;5.63;;;25.90;63.00;;;;;;4930514;28;88703;-84